Observations for Trim Market St
| Time | AQI | Temp °C | Hum % | Pres Pa | CO μg/m³ | H₂S μg/m³ | NO μg/m³ | NO₂ μg/m³ | O₃ μg/m³ | SO₂ μg/m³ | PM1 μg/m³ | PM2.5 μg/m³ | PM10 μg/m³ |
|---|---|---|---|---|---|---|---|---|---|---|---|---|---|
| Tuesday 14 July 2026 | |||||||||||||
| 07:02 | 1 | 19.5 | 72 | 54,207 | 0.29 | 0 | 0.9 | 4.67 | 7.23 | 0 | 2.85 | 3.47 | 6.91 |
| 07:01 | 1 | 19.4 | 72 | 53,911 | 0.3 | 0 | 0.59 | 4.98 | 7.74 | 0 | 2.14 | 3.94 | 7.53 |
| 06:59 | 1 | 19.2 | 72 | 53,206 | 0.32 | 0 | 1.1 | 4.26 | 7.36 | 0 | 2.14 | 3.43 | 6.92 |
| 06:58 | 1 | 19.1 | 72 | 52,816 | 0.29 | 0 | 0 | 3.87 | 10.09 | 0 | 2.14 | 4.38 | 6.92 |
| 06:57 | 1 | 19 | 73 | 52,348 | 0.3 | 0 | 0.63 | 3.87 | 12.39 | 0 | 2.14 | 3.41 | 5.7 |
| 06:55 | 1 | 18.8 | 73 | 51,206 | 0.31 | 0 | 0 | 5.18 | 13.65 | 0 | 2.14 | 4.35 | 6.92 |
| 06:53 | 1 | 18.6 | 74 | 49,758 | 0.3 | 0 | 0 | 3.08 | 9.26 | 0 | 2.14 | 4.33 | 8.14 |
| 06:52 | 1 | 18.5 | 74 | 48,864 | 0.28 | 0 | 0 | 4.28 | 8.03 | 0 | 2.85 | 3.36 | 5.72 |
| 06:48 | 1 | 18.2 | 75 | 45,408 | 0.27 | 0 | 0 | 4.37 | 15.52 | 0 | 2.85 | 4.28 | 8.73 |
| 06:45 | 1 | 17.9 | 75 | 42,507 | 0.24 | 0 | 0 | 3.79 | 13.81 | 0 | 2.85 | 4.25 | 8.13 |
| 06:43 | 1 | 17.7 | 75 | 40,791 | 0.26 | 0 | 2.21 | 4.31 | 12.94 | 0 | 2.85 | 5.19 | 8.13 |
| 06:40 | 1 | 17.5 | 76 | 38,114 | 0.24 | 0 | 0 | 4.42 | 13.02 | 0 | 2.14 | 4.21 | 7.53 |
| 06:34 | 1 | 17.2 | 76 | 33,897 | 0.24 | 0 | 0 | 4.44 | 16.19 | 0 | 2.14 | 3.23 | 5.76 |
| 06:33 | 1 | 17.1 | 76 | 33,298 | 0.24 | 0 | 0 | 4.96 | 15.91 | 0 | 3.56 | 5.61 | 9.89 |
| 06:32 | 1 | 17.1 | 76 | 32,733 | 0.23 | 0 | 0 | 4.35 | 14.12 | 0 | 2.85 | 3.7 | 6.94 |
| 06:31 | 1 | 17.1 | 77 | 32,192 | 0.22 | 0 | 0 | 3.94 | 16.36 | 0 | 2.85 | 3.7 | 6.36 |
| 06:30 | 1 | 17 | 77 | 31,608 | 0.23 | 0 | 0 | 5.16 | 18.69 | 0 | 1.43 | 3.22 | 5.77 |
| 06:29 | 1 | 17 | 77 | 31,068 | 0.23 | 0 | 0 | 4.95 | 15.3 | 0 | 2.85 | 3.69 | 6.36 |
| 06:28 | 1 | 16.9 | 77 | 30,608 | 0.25 | 0 | 0 | 6.57 | 18.48 | 0 | 3.56 | 5.12 | 8.12 |
| 06:27 | 1 | 16.9 | 77 | 30,177 | 0.22 | 0 | 0 | 5.27 | 17.65 | 0 | 2.85 | 4.16 | 6.94 |